Time;durP1;ratioP1;P1;durP2;ratioP2;P2;SDS_P1;SDS_P2;PMS_P1;PMS_P2;Temp;Humidity;BMP_temperature;BMP_pressure;BME280_temperature;BME280_humidity;BME280_pressure;Samples;Min_cycle;Max_cycle;Signal;HPM_P1;HPM_P2
2023/08/14 00:01:57;;;;;;;5.05;4.30;;;19.20;99.90;;;;;;5062291;28;20194;-93
2023/08/14 00:04:22;;;;;;;5.15;4.45;;;19.20;99.90;;;;;;5045411;28;20179;-87
2023/08/14 00:06:48;;;;;;;6.07;4.40;;;19.10;99.90;;;;;;5063067;28;20183;-88
2023/08/14 00:09:14;;;;;;;8.23;4.57;;;19.10;99.90;;;;;;5045394;28;20521;-87
2023/08/14 00:11:39;;;;;;;4.93;4.40;;;19.10;99.90;;;;;;5045583;28;20229;-87
2023/08/14 00:14:05;;;;;;;6.40;4.55;;;19.00;99.90;;;;;;5045456;28;20639;-87
2023/08/14 00:16:31;;;;;;;8.93;4.47;;;19.00;99.90;;;;;;5080482;28;20309;-87
2023/08/14 00:18:56;;;;;;;6.28;4.38;;;18.90;99.90;;;;;;5067714;28;20172;-87
2023/08/14 00:21:23;;;;;;;6.88;5.47;;;18.90;99.90;;;;;;5098094;28;20183;-86
2023/08/14 00:23:49;;;;;;;7.50;5.03;;;18.90;99.90;;;;;;5077952;28;20171;-87
2023/08/14 00:26:15;;;;;;;7.30;4.57;;;18.80;99.90;;;;;;5080914;28;20170;-87
2023/08/14 00:28:41;;;;;;;7.32;5.30;;;18.80;99.90;;;;;;5079589;28;20190;-87
2023/08/14 00:31:07;;;;;;;8.75;4.85;;;18.80;99.90;;;;;;5061980;28;20297;-87
2023/08/14 00:33:33;;;;;;;6.38;4.90;;;18.80;99.90;;;;;;5062141;28;20187;-87
2023/08/14 00:35:59;;;;;;;6.60;4.90;;;18.80;99.90;;;;;;5079787;28;20206;-87
2023/08/14 00:38:24;;;;;;;5.72;4.68;;;18.90;99.90;;;;;;5062080;28;20654;-87
2023/08/14 00:40:52;;;;;;;8.02;5.00;;;18.90;99.90;;;;;;5045431;28;20187;-87
2023/08/14 00:43:20;;;;;;;5.70;4.40;;;18.90;99.90;;;;;;5029369;28;20186;-87
2023/08/14 00:45:45;;;;;;;8.90;5.10;;;18.90;99.90;;;;;;5079955;28;20182;-87
2023/08/14 00:48:12;;;;;;;6.75;5.22;;;18.90;99.90;;;;;;5079721;28;20175;-87
2023/08/14 00:50:38;;;;;;;7.78;5.32;;;18.50;99.90;;;;;;5079482;28;20213;-87
2023/08/14 00:53:04;;;;;;;7.35;5.20;;;;;;;;;;5062078;28;20222;-87
2023/08/14 00:55:30;;;;;;;7.07;4.35;;;19.40;99.90;;;;;;5062266;28;20175;-87
2023/08/14 00:57:56;;;;;;;10.60;5.00;;;18.80;99.90;;;;;;5045061;28;20282;-87
2023/08/14 01:00:23;;;;;;;5.60;4.38;;;18.60;99.90;;;;;;5079936;28;20183;-87
2023/08/14 01:02:49;;;;;;;8.10;4.70;;;19.20;99.90;;;;;;5045591;28;20232;-87
2023/08/14 01:05:16;;;;;;;6.53;4.93;;;18.80;99.90;;;;;;5067459;28;20179;-88
2023/08/14 01:07:41;;;;;;;7.45;5.55;;;18.80;99.90;;;;;;5076303;28;20179;-87
2023/08/14 01:10:08;;;;;;;8.75;4.60;;;18.90;99.90;;;;;;5064270;28;20576;-87
2023/08/14 01:12:45;;;;;;;8.00;4.68;;;18.30;99.90;;;;;;5058179;28;20193;-87
2023/08/14 01:15:15;;;;;;;5.13;4.50;;;18.70;99.90;;;;;;5055187;28;20230;-87
2023/08/14 01:17:47;;;;;;;7.63;5.15;;;18.70;99.90;;;;;;5056757;28;20641;-86
2023/08/14 01:20:16;;;;;;;7.18;4.75;;;18.60;99.90;;;;;;5057179;28;20613;-85
2023/08/14 01:23:15;;;;;;;6.22;4.80;;;18.60;99.90;;;;;;5056686;28;20537;-86
2023/08/14 01:25:43;;;;;;;6.70;5.53;;;18.60;99.90;;;;;;5051488;28;20682;-86
2023/08/14 01:28:10;;;;;;;5.40;4.15;;;18.50;99.90;;;;;;5054485;28;20645;-86
2023/08/14 01:30:36;;;;;;;5.97;4.95;;;18.50;99.90;;;;;;5055209;28;20242;-86
2023/08/14 01:33:02;;;;;;;9.00;5.30;;;18.50;99.90;;;;;;5039278;28;20188;-86
2023/08/14 01:35:41;;;;;;;8.75;4.90;;;18.30;99.90;;;;;;5057183;28;20222;-86
2023/08/14 01:38:33;;;;;;;7.57;5.32;;;19.10;99.90;;;;;;5057033;28;20179;-86
2023/08/14 01:41:11;;;;;;;9.27;5.72;;;18.50;99.90;;;;;;5080085;28;20160;-86
2023/08/14 01:43:49;;;;;;;7.95;5.50;;;18.50;99.90;;;;;;5065764;28;20176;-86
2023/08/14 01:46:16;;;;;;;5.57;4.90;;;18.40;99.90;;;;;;5054715;28;20218;-87
2023/08/14 01:48:44;;;;;;;8.10;5.30;;;18.80;99.90;;;;;;5055812;28;20180;-86
2023/08/14 01:51:11;;;;;;;11.07;5.68;;;18.40;99.90;;;;;;5055350;28;20187;-86
2023/08/14 01:53:36;;;;;;;10.73;5.28;;;18.70;99.90;;;;;;5055611;28;20632;-87
2023/08/14 01:56:02;;;;;;;7.18;5.35;;;18.40;99.90;;;;;;5055754;28;20176;-87
2023/08/14 01:58:29;;;;;;;6.70;5.25;;;18.60;99.90;;;;;;5055875;28;20176;-87
2023/08/14 02:00:55;;;;;;;7.38;5.45;;;18.50;99.90;;;;;;5037687;28;20302;-86
2023/08/14 02:03:20;;;;;;;7.47;6.05;;;18.40;99.90;;;;;;5055777;28;20624;-87
2023/08/14 02:05:46;;;;;;;6.63;5.32;;;18.40;99.90;;;;;;5054282;28;20172;-87
2023/08/14 02:08:12;;;;;;;7.90;6.25;;;18.30;99.90;;;;;;5053826;28;20199;-87
2023/08/14 02:10:37;;;;;;;9.27;6.82;;;18.30;99.90;;;;;;5053745;28;20199;-87
2023/08/14 02:13:03;;;;;;;10.05;5.57;;;18.30;99.90;;;;;;5037444;28;20186;-87
2023/08/14 02:15:29;;;;;;;8.38;5.47;;;18.30;99.90;;;;;;5036258;28;20750;-87
2023/08/14 02:17:57;;;;;;;8.68;5.72;;;18.30;99.90;;;;;;5053750;28;20263;-87
2023/08/14 02:20:25;;;;;;;8.38;5.93;;;18.30;99.90;;;;;;5037855;28;20188;-87
2023/08/14 02:22:50;;;;;;;8.75;5.28;;;18.30;99.90;;;;;;5054366;28;20175;-87
2023/08/14 02:25:16;;;;;;;8.48;5.63;;;18.30;99.90;;;;;;5053999;28;20557;-87
2023/08/14 02:27:42;;;;;;;7.82;5.35;;;;;;;;;;5053549;28;20190;-87
2023/08/14 02:30:08;;;;;;;8.10;6.00;;;18.10;99.90;;;;;;5053749;28;20207;-87
2023/08/14 02:32:34;;;;;;;6.95;5.07;;;18.30;99.90;;;;;;5054750;28;20184;-87
2023/08/14 02:34:59;;;;;;;8.25;6.20;;;18.30;99.90;;;;;;5053594;28;20269;-88
2023/08/14 02:37:25;;;;;;;8.05;5.93;;;18.30;99.90;;;;;;5054740;28;20179;-87
2023/08/14 02:39:51;;;;;;;6.60;5.63;;;18.20;99.90;;;;;;5053490;28;20219;-87
2023/08/14 02:42:17;;;;;;;6.32;5.40;;;18.30;99.90;;;;;;5053314;28;20183;-87
2023/08/14 02:44:43;;;;;;;7.20;5.93;;;18.20;99.90;;;;;;5053005;28;20186;-87
2023/08/14 02:47:09;;;;;;;7.53;5.75;;;18.20;99.90;;;;;;5053201;28;20175;-87
2023/08/14 02:49:35;;;;;;;7.88;6.32;;;18.10;99.90;;;;;;5054459;28;20271;-87
2023/08/14 02:52:01;;;;;;;8.18;6.38;;;18.20;99.90;;;;;;5036606;28;20208;-87
2023/08/14 02:54:26;;;;;;;11.57;6.32;;;18.20;99.90;;;;;;5054337;28;20354;-89
2023/08/14 02:56:52;;;;;;;12.00;6.35;;;18.20;99.90;;;;;;5053331;28;20220;-88
2023/08/14 02:59:18;;;;;;;8.98;5.97;;;18.20;99.90;;;;;;5053189;28;20184;-88
2023/08/14 03:01:44;;;;;;;7.07;5.38;;;18.20;99.90;;;;;;5052673;28;20234;-89
2023/08/14 03:04:10;;;;;;;7.93;6.22;;;18.20;99.90;;;;;;5053935;28;20176;-88
2023/08/14 03:06:35;;;;;;;8.95;6.40;;;18.20;99.90;;;;;;5036359;28;20184;-87
2023/08/14 03:09:02;;;;;;;7.13;5.50;;;18.10;99.90;;;;;;5036356;28;20652;-87
2023/08/14 03:11:27;;;;;;;10.73;6.53;;;18.10;99.90;;;;;;5053693;28;20295;-90
2023/08/14 03:13:53;;;;;;;8.18;5.80;;;18.10;99.90;;;;;;5020343;28;20612;-87
2023/08/14 03:16:19;;;;;;;8.35;6.50;;;18.10;99.90;;;;;;5069606;28;20590;-88
2023/08/14 03:18:45;;;;;;;8.48;5.90;;;;;;;;;;5055796;28;20215;-87
2023/08/14 03:21:11;;;;;;;8.07;6.63;;;18.30;99.90;;;;;;5073673;28;20644;-87
2023/08/14 03:23:36;;;;;;;7.70;6.68;;;18.40;99.90;;;;;;5055805;28;20186;-87
2023/08/14 03:26:03;;;;;;;10.77;6.75;;;18.30;99.90;;;;;;5055888;28;20574;-87
2023/08/14 03:28:29;;;;;;;11.07;6.50;;;18.40;99.90;;;;;;5055487;28;20177;-87
2023/08/14 03:30:54;;;;;;;7.00;6.03;;;18.40;99.90;;;;;;5055653;28;20667;-87
2023/08/14 03:33:20;;;;;;;7.95;6.63;;;18.40;99.90;;;;;;5073812;28;20538;-88
2023/08/14 03:35:46;;;;;;;8.23;6.32;;;18.50;99.90;;;;;;5039123;28;20643;-87
2023/08/14 03:38:12;;;;;;;9.23;6.43;;;18.50;99.90;;;;;;5055780;28;20215;-88
2023/08/14 03:40:37;;;;;;;11.98;6.78;;;18.50;99.90;;;;;;5055706;28;20187;-87
2023/08/14 03:43:03;;;;;;;8.23;6.45;;;18.50;99.90;;;;;;5073836;28;20175;-87
2023/08/14 03:45:29;;;;;;;8.10;6.03;;;18.50;99.90;;;;;;5022696;28;20662;-88
2023/08/14 03:47:55;;;;;;;7.47;6.03;;;18.50;99.90;;;;;;5055573;28;20233;-87
2023/08/14 03:50:21;;;;;;;8.93;6.22;;;18.50;99.90;;;;;;5055476;28;20301;-88
2023/08/14 03:52:48;;;;;;;7.07;6.07;;;18.50;99.90;;;;;;5073735;28;20263;-87
2023/08/14 03:55:14;;;;;;;8.82;6.95;;;18.50;99.90;;;;;;5073158;28;20254;-86
2023/08/14 03:57:39;;;;;;;8.98;6.07;;;18.50;99.90;;;;;;5022530;28;20266;-86
2023/08/14 04:00:06;;;;;;;8.30;5.90;;;18.50;99.90;;;;;;5045655;28;20181;-86
2023/08/14 04:02:32;;;;;;;8.20;5.90;;;18.50;99.90;;;;;;5074119;28;20172;-89
2023/08/14 04:04:58;;;;;;;7.57;6.20;;;18.50;99.90;;;;;;5038748;28;20186;-88
2023/08/14 04:07:23;;;;;;;8.00;6.50;;;18.60;99.90;;;;;;5073595;28;20208;-88
2023/08/14 04:09:49;;;;;;;17.90;8.95;;;18.60;99.90;;;;;;5055900;28;20197;-88
2023/08/14 04:12:15;;;;;;;11.68;7.22;;;18.60;99.90;;;;;;5055738;28;20728;-87
2023/08/14 04:14:40;;;;;;;8.07;6.28;;;18.70;99.90;;;;;;5072963;28;20175;-88
2023/08/14 04:17:06;;;;;;;8.73;7.15;;;18.70;99.90;;;;;;5038914;28;20179;-87
2023/08/14 04:19:32;;;;;;;7.13;6.43;;;18.80;99.90;;;;;;5055412;28;20273;-88
2023/08/14 04:21:57;;;;;;;8.27;6.45;;;18.70;99.90;;;;;;5055823;28;20225;-87
2023/08/14 04:24:23;;;;;;;9.02;6.63;;;18.70;99.90;;;;;;5039860;28;20218;-87
2023/08/14 04:26:49;;;;;;;8.10;6.78;;;;;;;;;;5039456;28;20218;-87
2023/08/14 04:29:16;;;;;;;8.50;6.60;;;18.80;99.90;;;;;;5040579;28;20240;-87
2023/08/14 04:31:41;;;;;;;11.38;6.50;;;18.80;99.90;;;;;;5079117;28;20340;-89
2023/08/14 04:34:08;;;;;;;8.63;6.78;;;18.90;99.90;;;;;;5044794;28;20623;-87
2023/08/14 04:36:35;;;;;;;11.60;7.18;;;18.90;99.90;;;;;;5067954;28;20159;-86
2023/08/14 04:39:03;;;;;;;9.18;6.88;;;19.00;99.90;;;;;;5057782;28;20189;-86
2023/08/14 04:41:29;;;;;;;11.38;8.07;;;19.10;99.90;;;;;;5093426;28;20171;-86
2023/08/14 04:43:55;;;;;;;10.70;7.40;;;19.20;99.90;;;;;;5101685;28;20187;-88
2023/08/14 04:46:33;;;;;;;10.93;6.72;;;19.40;99.90;;;;;;5084168;28;20163;-87
2023/08/14 04:49:00;;;;;;;9.85;6.68;;;19.60;99.90;;;;;;5101134;28;20182;-86
2023/08/14 04:51:26;;;;;;;12.20;7.50;;;19.80;99.90;;;;;;5099835;28;20447;-88
2023/08/14 04:53:52;;;;;;;7.95;6.15;;;;;;;;;;5067038;28;20183;-88
2023/08/14 04:56:18;;;;;;;7.90;5.95;;;19.80;99.90;;;;;;5068745;28;20696;-88
2023/08/14 04:58:44;;;;;;;8.35;6.32;;;19.90;99.90;;;;;;5063636;28;20225;-88
2023/08/14 05:01:10;;;;;;;7.50;5.63;;;;;;;;;;5051802;28;20194;-91
2023/08/14 05:03:36;;;;;;;8.27;5.75;;;;;;;;;;5063913;28;20184;-91
2023/08/14 05:06:02;;;;;;;8.00;6.72;;;;;;;;;;5069618;28;20183;-89
2023/08/14 05:08:28;;;;;;;11.73;6.55;;;;;;;;;;5060395;28;20194;-88
2023/08/14 05:10:54;;;;;;;10.38;6.80;;;20.00;99.90;;;;;;5059697;28;20211;-88
2023/08/14 05:13:20;;;;;;;16.35;10.98;;;19.90;99.90;;;;;;5058595;28;20293;-88
2023/08/14 05:15:47;;;;;;;12.40;8.85;;;20.20;99.90;;;;;;5056593;28;20235;-89
2023/08/14 05:18:13;;;;;;;10.20;6.85;;;20.40;99.90;;;;;;5056802;28;20168;-88
2023/08/14 05:20:43;;;;;;;11.35;6.90;;;20.50;99.90;;;;;;5038997;28;20668;-88
2023/08/14 05:23:09;;;;;;;7.30;6.25;;;20.60;99.90;;;;;;5055376;28;20180;-90
2023/08/14 05:25:35;;;;;;;9.13;6.65;;;20.80;99.90;;;;;;5055150;28;20191;-89
2023/08/14 05:28:01;;;;;;;12.75;7.00;;;21.00;99.90;;;;;;5038439;28;20182;-89
2023/08/14 05:30:27;;;;;;;10.90;6.75;;;21.10;99.90;;;;;;5054908;28;20672;-89
2023/08/14 05:32:53;;;;;;;9.32;6.32;;;21.30;99.90;;;;;;5055843;28;20187;-90
2023/08/14 05:35:23;;;;;;;9.95;6.55;;;21.40;99.90;;;;;;5038581;28;20271;-90
2023/08/14 05:37:52;;;;;;;7.25;6.13;;;21.50;99.90;;;;;;5055447;28;20161;-92
2023/08/14 05:40:19;;;;;;;9.45;6.38;;;21.60;99.90;;;;;;5055673;28;20207;-94
2023/08/14 05:43:02;;;;;;;9.45;6.45;;;21.80;99.90;;;;;;5054880;28;20209;-90
2023/08/14 05:45:27;;;;;;;6.85;5.65;;;21.70;99.90;;;;;;5056092;28;20160;-92
2023/08/14 05:47:53;;;;;;;6.75;5.55;;;21.90;99.90;;;;;;5037947;28;20186;-91
2023/08/14 05:50:20;;;;;;;8.13;6.00;;;21.90;99.90;;;;;;5038160;28;20211;-91
2023/08/14 05:52:47;;;;;;;7.85;5.53;;;22.10;99.90;;;;;;5039110;28;20184;-87
2023/08/14 05:55:12;;;;;;;7.55;6.13;;;22.20;99.90;;;;;;5037551;28;20193;-87
2023/08/14 05:57:38;;;;;;;10.35;6.72;;;22.20;99.90;;;;;;5037747;28;20565;-87
2023/08/14 06:00:05;;;;;;;8.05;6.63;;;22.30;99.90;;;;;;5068913;28;20195;-86
2023/08/14 06:02:30;;;;;;;6.88;6.18;;;22.40;99.90;;;;;;5076293;28;20164;-87
2023/08/14 06:04:56;;;;;;;7.70;5.53;;;22.50;99.90;;;;;;5056314;28;20180;-88
2023/08/14 06:07:22;;;;;;;9.02;6.70;;;22.70;99.90;;;;;;5054417;28;20183;-86
2023/08/14 06:09:48;;;;;;;8.73;6.57;;;;;;;;;;5054270;28;20221;-87
2023/08/14 06:12:13;;;;;;;8.55;6.38;;;22.80;99.90;;;;;;5054960;28;20675;-86
2023/08/14 06:14:39;;;;;;;11.35;7.07;;;23.00;99.90;;;;;;5037850;28;20187;-86
2023/08/14 06:17:05;;;;;;;7.78;5.90;;;23.20;99.90;;;;;;5074331;28;20160;-86
2023/08/14 06:19:31;;;;;;;7.25;5.65;;;23.20;99.90;;;;;;5056907;28;20237;-87
2023/08/14 06:21:57;;;;;;;7.43;6.18;;;23.30;99.90;;;;;;5056926;28;20262;-86
2023/08/14 06:24:23;;;;;;;8.18;5.25;;;23.30;99.90;;;;;;5040227;28;20278;-86
2023/08/14 06:26:48;;;;;;;6.55;5.93;;;23.20;99.90;;;;;;5089947;28;20198;-87
2023/08/14 06:29:14;;;;;;;6.63;5.38;;;23.20;99.90;;;;;;5079988;28;20194;-87
2023/08/14 06:31:39;;;;;;;6.85;6.07;;;23.20;99.90;;;;;;5069681;28;20215;-88
2023/08/14 06:34:05;;;;;;;6.63;5.93;;;23.20;99.90;;;;;;5056017;28;20186;-88
2023/08/14 06:36:31;;;;;;;6.90;6.00;;;23.20;99.90;;;;;;5056165;28;20735;-88
2023/08/14 06:38:56;;;;;;;8.48;5.95;;;23.30;99.90;;;;;;5039860;28;20194;-88
2023/08/14 06:41:22;;;;;;;8.45;6.45;;;23.20;99.90;;;;;;5039296;28;20540;-89
2023/08/14 06:43:48;;;;;;;6.70;5.70;;;23.30;99.90;;;;;;5023020;28;20179;-89
2023/08/14 06:46:14;;;;;;;5.75;5.07;;;23.40;99.90;;;;;;5055664;28;20229;-86
2023/08/14 06:48:40;;;;;;;6.45;5.43;;;23.40;99.90;;;;;;5039620;28;20198;-86
2023/08/14 06:51:05;;;;;;;7.07;5.18;;;23.40;99.90;;;;;;5055744;28;20217;-86
2023/08/14 06:53:31;;;;;;;6.35;5.28;;;23.30;99.90;;;;;;5039190;28;20194;-87
2023/08/14 06:55:57;;;;;;;8.15;5.60;;;23.20;99.90;;;;;;5039271;28;20215;-87
2023/08/14 06:58:23;;;;;;;8.70;5.93;;;23.20;99.90;;;;;;5038888;28;20270;-87
2023/08/14 07:00:48;;;;;;;5.97;5.38;;;23.10;99.90;;;;;;5055161;28;20179;-89
2023/08/14 07:03:14;;;;;;;6.93;5.28;;;23.00;99.90;;;;;;5054199;28;20217;-88
2023/08/14 07:05:40;;;;;;;6.68;5.55;;;23.10;99.90;;;;;;5038613;28;20175;-88
2023/08/14 07:08:05;;;;;;;7.75;5.28;;;23.20;99.90;;;;;;5055394;28;20179;-87
2023/08/14 07:10:31;;;;;;;7.22;5.47;;;23.30;99.90;;;;;;5038674;28;20613;-86
2023/08/14 07:12:57;;;;;;;5.47;4.97;;;23.30;99.90;;;;;;5038569;28;20689;-87
2023/08/14 07:15:22;;;;;;;7.82;5.57;;;23.40;99.90;;;;;;5073434;28;20870;-87
2023/08/14 07:17:48;;;;;;;6.75;5.25;;;23.50;99.90;;;;;;5073255;28;20224;-87
2023/08/14 07:20:14;;;;;;;6.30;4.85;;;;;;;;;;5038084;28;20187;-88
2023/08/14 07:22:39;;;;;;;5.68;5.15;;;24.00;99.90;;;;;;5055235;28;20179;-89
2023/08/14 07:25:06;;;;;;;6.63;4.90;;;24.00;99.90;;;;;;5055246;28;20594;-88
2023/08/14 07:27:31;;;;;;;6.78;5.43;;;24.00;99.90;;;;;;5055857;28;20690;-87
2023/08/14 07:29:57;;;;;;;7.57;4.90;;;24.20;99.90;;;;;;5056070;28;20214;-86
2023/08/14 07:32:23;;;;;;;5.28;4.38;;;;;;;;;;5038682;28;20677;-87
2023/08/14 07:34:49;;;;;;;10.18;5.45;;;24.40;99.90;;;;;;5054909;28;20179;-88
2023/08/14 07:37:14;;;;;;;9.85;5.35;;;24.50;99.90;;;;;;5038458;28;20191;-88
2023/08/14 07:39:40;;;;;;;5.95;4.95;;;;;;;;;;5038387;28;20176;-88
2023/08/14 07:42:06;;;;;;;5.13;4.63;;;;;;;;;;5054693;28;20214;-88
2023/08/14 07:44:32;;;;;;;5.80;4.75;;;24.50;99.90;;;;;;5072971;28;20179;-89
2023/08/14 07:46:58;;;;;;;5.55;4.95;;;;;;;;;;5038160;28;20190;-88
2023/08/14 07:49:24;;;;;;;6.88;4.57;;;;;;;;;;5054061;28;20689;-88
2023/08/14 07:51:50;;;;;;;5.18;4.68;;;25.00;99.90;;;;;;5054877;28;20211;-87
2023/08/14 07:54:16;;;;;;;6.70;4.93;;;25.40;99.90;;;;;;5054013;28;20535;-88
2023/08/14 07:56:42;;;;;;;5.85;4.93;;;;;;;;;;5073363;28;20178;-89
2023/08/14 07:59:08;;;;;;;8.25;4.70;;;;;;;;;;5073014;28;20176;-88
2023/08/14 08:01:34;;;;;;;17.38;6.75;;;;;;;;;;5073173;28;20545;-89
2023/08/14 08:04:00;;;;;;;6.03;4.88;;;25.60;99.90;;;;;;5054976;28;20171;-89
2023/08/14 08:06:26;;;;;;;10.13;5.35;;;;;;;;;;5055338;28;20178;-88
2023/08/14 08:08:52;;;;;;;5.78;4.93;;;;;;;;;;5054795;28;20262;-89
2023/08/14 08:11:18;;;;;;;5.38;4.47;;;;;;;;;;5072712;28;20286;-89
2023/08/14 08:13:44;;;;;;;4.50;3.72;;;;;;;;;;5056082;28;20302;-89
2023/08/14 08:16:10;;;;;;;6.40;4.22;;;;;;;;;;5058558;28;20231;-89
2023/08/14 08:18:36;;;;;;;9.63;5.15;;;;;;;;;;5058959;28;20262;-89
2023/08/14 08:21:02;;;;;;;5.47;4.70;;;;;;;;;;5041976;28;20221;-90
2023/08/14 08:23:28;;;;;;;4.53;3.80;;;;;;;;;;5075914;28;20202;-89
2023/08/14 08:25:54;;;;;;;6.47;5.10;;;;;;;;;;5076498;28;20695;-89
2023/08/14 08:28:20;;;;;;;6.43;4.80;;;;;;;;;;5076326;28;20217;-88
2023/08/14 08:30:46;;;;;;;5.38;4.65;;;;;;;;;;5076271;28;20203;-88
2023/08/14 08:33:12;;;;;;;5.32;4.80;;;26.70;99.90;;;;;;5076337;28;20176;-88
2023/08/14 08:35:38;;;;;;;5.75;4.30;;;26.60;99.90;;;;;;5058224;28;20237;-88
2023/08/14 08:38:04;;;;;;;7.32;4.93;;;26.40;99.90;;;;;;5058309;28;20202;-89
2023/08/14 08:40:31;;;;;;;4.63;4.22;;;26.70;99.90;;;;;;5041735;28;20187;-88
2023/08/14 08:43:00;;;;;;;6.38;4.90;;;26.90;99.90;;;;;;5076171;28;20167;-89
2023/08/14 08:45:31;;;;;;;6.07;4.32;;;26.90;99.90;;;;;;5058307;28;20233;-89
2023/08/14 08:48:00;;;;;;;6.65;4.72;;;27.00;99.90;;;;;;5076175;28;20186;-89
2023/08/14 08:50:28;;;;;;;5.18;4.20;;;27.10;99.90;;;;;;5057828;28;20211;-89
2023/08/14 08:52:54;;;;;;;5.45;4.45;;;27.10;99.90;;;;;;5058673;28;20190;-88
2023/08/14 08:55:20;;;;;;;5.60;4.80;;;27.20;99.90;;;;;;5075593;28;20544;-88
2023/08/14 08:57:48;;;;;;;7.53;4.43;;;27.90;99.90;;;;;;5041508;28;20175;-88
2023/08/14 09:00:14;;;;;;;5.68;4.63;;;26.80;99.90;;;;;;5075779;28;20190;-88
2023/08/14 09:02:40;;;;;;;4.95;4.43;;;27.50;99.90;;;;;;5041469;28;20548;-88
2023/08/14 09:05:06;;;;;;;5.18;4.38;;;28.20;99.90;;;;;;5058412;28;20175;-89
2023/08/14 09:07:33;;;;;;;4.20;3.80;;;27.60;99.90;;;;;;5058049;28;20195;-89
2023/08/14 09:10:00;;;;;;;4.88;4.38;;;;;;;;;;5051066;28;20187;-88
2023/08/14 09:12:26;;;;;;;7.43;4.18;;;;;;;;;;5088164;28;20214;-88
2023/08/14 09:15:04;;;;;;;5.50;4.47;;;27.80;99.90;;;;;;5061585;28;20179;-88
2023/08/14 09:17:30;;;;;;;10.07;4.53;;;;;;;;;;5075753;28;20237;-88
2023/08/14 09:19:56;;;;;;;5.88;4.57;;;28.50;99.90;;;;;;5041130;28;20215;-89
2023/08/14 09:22:22;;;;;;;4.88;3.92;;;;;;;;;;5075695;28;20585;-88
2023/08/14 09:24:49;;;;;;;5.35;3.78;;;28.20;99.90;;;;;;5058868;28;20275;-88
2023/08/14 09:27:15;;;;;;;5.05;3.95;;;28.60;99.90;;;;;;5075251;28;20179;-89
2023/08/14 09:29:41;;;;;;;10.55;3.92;;;28.90;99.90;;;;;;5057590;28;20176;-88
2023/08/14 09:32:09;;;;;;;6.57;3.80;;;29.10;99.90;;;;;;5057196;28;20675;-87
2023/08/14 09:34:36;;;;;;;5.57;3.90;;;28.70;99.90;;;;;;5075372;28;20189;-87
2023/08/14 09:37:04;;;;;;;3.90;3.60;;;29.10;96.60;;;;;;5057373;28;20183;-86
2023/08/14 09:39:30;;;;;;;4.57;4.10;;;;;;;;;;5075767;28;20179;-87
2023/08/14 09:41:56;;;;;;;4.43;3.30;;;;;;;;;;5057971;28;20274;-87
2023/08/14 09:44:25;;;;;;;5.20;3.78;;;29.30;93.50;;;;;;5075560;28;20183;-87
2023/08/14 09:46:54;;;;;;;3.40;3.10;;;29.30;99.90;;;;;;5076610;28;20179;-87
2023/08/14 09:49:20;;;;;;;4.50;3.20;;;;;;;;;;5058554;28;20544;-87
2023/08/14 09:51:57;;;;;;;4.50;3.20;;;29.30;99.90;;;;;;5076120;28;20191;-86
2023/08/14 09:54:34;;;;;;;4.10;3.40;;;29.30;99.90;;;;;;5058288;28;20199;-86
2023/08/14 09:57:03;;;;;;;4.40;3.25;;;29.60;90.80;;;;;;5075103;28;20171;-87
2023/08/14 09:59:28;;;;;;;4.50;3.50;;;29.60;91.50;;;;;;5056788;28;20187;-89
2023/08/14 10:01:55;;;;;;;3.35;3.05;;;;;;;;;;5073650;28;20510;-88
2023/08/14 10:04:23;;;;;;;6.18;3.38;;;29.50;91.00;;;;;;5074086;28;20519;-88
2023/08/14 10:06:51;;;;;;;4.22;3.42;;;29.70;90.80;;;;;;5074038;28;20283;-89
2023/08/14 10:09:21;;;;;;;4.05;3.15;;;29.90;90.60;;;;;;5073601;28;20172;-88
2023/08/14 10:11:48;;;;;;;4.88;3.22;;;30.50;98.10;;;;;;5073819;28;20199;-87
2023/08/14 10:14:17;;;;;;;3.80;3.40;;;30.10;87.50;;;;;;5055840;28;20176;-87
2023/08/14 10:16:43;;;;;;;3.95;3.20;;;30.20;89.30;;;;;;5073175;28;20313;-88
2023/08/14 10:19:13;;;;;;;3.20;2.90;;;30.40;88.40;;;;;;5073328;28;20198;-87
2023/08/14 10:21:40;;;;;;;5.00;3.45;;;;;;;;;;5073457;28;20257;-87
2023/08/14 10:24:07;;;;;;;5.00;3.78;;;30.60;88.00;;;;;;5055622;28;20213;-87
2023/08/14 10:26:33;;;;;;;4.22;3.20;;;;;;;;;;5073555;28;20190;-88
2023/08/14 10:28:59;;;;;;;3.45;3.15;;;30.50;92.00;;;;;;5073533;28;20171;-86
2023/08/14 10:31:27;;;;;;;3.30;3.00;;;30.50;93.10;;;;;;5073159;28;20249;-87
2023/08/14 10:33:58;;;;;;;3.80;3.33;;;30.60;94.00;;;;;;5054999;28;20183;-87
2023/08/14 10:36:29;;;;;;;4.55;3.05;;;31.10;93.10;;;;;;5054546;28;20251;-87
2023/08/14 10:39:08;;;;;;;4.97;3.70;;;31.40;83.30;;;;;;5072899;28;20155;-86
2023/08/14 10:41:35;;;;;;;4.55;3.10;;;;;;;;;;5054955;28;20510;-86
2023/08/14 10:44:09;;;;;;;4.53;2.92;;;32.00;92.20;;;;;;5055848;28;20179;-87
2023/08/14 10:46:37;;;;;;;6.00;3.17;;;31.20;78.20;;;;;;5074055;28;20186;-86
2023/08/14 10:49:03;;;;;;;7.60;3.80;;;30.50;93.60;;;;;;5074144;28;20171;-86
2023/08/14 10:51:32;;;;;;;5.32;3.33;;;30.80;90.30;;;;;;5073768;28;20238;-86
2023/08/14 10:54:12;;;;;;;5.80;3.45;;;31.90;82.20;;;;;;5054442;28;20187;-87
2023/08/14 10:56:47;;;;;;;5.85;3.38;;;31.60;77.00;;;;;;5086888;28;20159;-89
2023/08/14 10:59:24;;;;;;;3.80;3.30;;;32.10;91.00;;;;;;5072933;28;20171;-87
2023/08/14 11:02:04;;;;;;;5.40;3.72;;;31.80;76.90;;;;;;5075892;28;20166;-86
2023/08/14 11:04:31;;;;;;;3.30;3.00;;;;;;;;;;5053996;28;20203;-85
2023/08/14 11:07:11;;;;;;;3.42;3.13;;;31.30;76.60;;;;;;5071963;28;20179;-86
2023/08/14 11:09:38;;;;;;;3.78;3.30;;;31.60;76.50;;;;;;5072323;28;20155;-85
2023/08/14 11:12:07;;;;;;;3.85;2.97;;;31.90;90.70;;;;;;5073224;28;20208;-87
2023/08/14 11:14:38;;;;;;;4.15;3.75;;;31.30;90.30;;;;;;5073079;28;20186;-85
2023/08/14 11:17:05;;;;;;;5.28;3.88;;;;;;;;;;5054548;28;20222;-85
2023/08/14 11:19:34;;;;;;;3.08;2.78;;;31.60;71.10;;;;;;5072686;28;20640;-86
2023/08/14 11:22:00;;;;;;;3.05;2.83;;;;;;;;;;5053876;28;20179;-86
2023/08/14 11:24:26;;;;;;;3.72;3.00;;;;;;;;;;5072122;28;20182;-87
2023/08/14 11:26:53;;;;;;;3.28;2.97;;;32.10;86.60;;;;;;5054052;28;20198;-88
2023/08/14 11:29:19;;;;;;;4.45;3.10;;;;;;;;;;5054708;28;20631;-85
2023/08/14 11:31:45;;;;;;;6.05;3.05;;;;;;;;;;5053679;28;20693;-87
2023/08/14 11:34:11;;;;;;;3.60;3.20;;;32.20;86.90;;;;;;5072436;28;20542;-87
2023/08/14 11:36:41;;;;;;;4.07;3.20;;;31.10;85.20;;;;;;5054928;28;20183;-87
2023/08/14 11:39:07;;;;;;;4.57;3.22;;;31.70;86.20;;;;;;5054737;28;20183;-86
2023/08/14 11:41:34;;;;;;;5.68;3.33;;;31.70;69.10;;;;;;5072671;28;20183;-87
2023/08/14 11:44:00;;;;;;;3.45;3.15;;;;;;;;;;5054682;28;20265;-87
2023/08/14 11:46:26;;;;;;;5.15;4.18;;;;;;;;;;5054479;28;20216;-85
2023/08/14 11:48:53;;;;;;;3.53;3.00;;;;;;;;;;5071840;28;20229;-84
2023/08/14 11:51:19;;;;;;;5.07;3.03;;;;;;;;;;5072150;28;20294;-86
2023/08/14 11:53:45;;;;;;;3.38;3.08;;;;;;;;;;5037731;28;20194;-86
2023/08/14 11:56:11;;;;;;;3.40;3.10;;;;;;;;;;5072227;28;20175;-85
2023/08/14 11:58:38;;;;;;;3.40;3.10;;;;;;;;;;5054211;28;20186;-86
2023/08/14 12:01:04;;;;;;;5.65;3.83;;;;;;;;;;5053576;28;20188;-86
2023/08/14 12:03:31;;;;;;;4.05;3.63;;;32.20;69.40;;;;;;5072314;28;20175;-86
2023/08/14 12:06:03;;;;;;;3.97;3.08;;;32.00;83.20;;;;;;5054055;28;20522;-86
2023/08/14 12:08:29;;;;;;;3.85;3.42;;;32.40;67.00;;;;;;5073427;28;20644;-85
2023/08/14 12:10:55;;;;;;;4.22;3.25;;;;;;;;;;5075776;28;20207;-86
2023/08/14 12:13:22;;;;;;;6.47;4.05;;;;;;;;;;5074913;28;20624;-85
2023/08/14 12:15:48;;;;;;;4.03;3.30;;;;;;;;;;5074463;28;20223;-86
2023/08/14 12:18:21;;;;;;;3.47;3.17;;;32.10;65.20;;;;;;5072031;28;20256;-87
2023/08/14 12:20:52;;;;;;;3.75;3.00;;;32.50;81.80;;;;;;5053917;28;20541;-88
2023/08/14 12:23:22;;;;;;;4.15;3.05;;;32.10;65.80;;;;;;5071967;28;20199;-87
2023/08/14 12:25:48;;;;;;;5.05;3.55;;;;;;;;;;5072732;28;20178;-87
2023/08/14 12:28:14;;;;;;;4.32;3.38;;;;;;;;;;5072248;28;20179;-87
2023/08/14 12:30:40;;;;;;;6.90;3.00;;;;;;;;;;5071717;28;20241;-86
2023/08/14 12:33:06;;;;;;;4.00;3.47;;;34.30;65.60;;;;;;5073214;28;20518;-84
2023/08/14 12:35:31;;;;;;;3.42;3.13;;;33.50;97.40;;;;;;5071874;28;20225;-85
2023/08/14 12:37:59;;;;;;;4.40;2.80;;;;;;;;;;5054060;28;20176;-84
2023/08/14 12:40:25;;;;;;;4.28;2.95;;;;;;;;;;5053696;28;20183;-85
2023/08/14 12:42:51;;;;;;;3.38;3.08;;;;;;;;;;5071785;28;20175;-85
2023/08/14 12:45:17;;;;;;;5.38;3.00;;;;;;;;;;5053526;28;20179;-85
2023/08/14 12:47:43;;;;;;;3.30;3.00;;;;;;;;;;5037335;28;20540;-85
2023/08/14 12:50:09;;;;;;;3.55;2.97;;;;;;;;;;5053698;28;20183;-85
2023/08/14 12:52:35;;;;;;;3.70;2.92;;;;;;;;;;5053560;28;20242;-87
2023/08/14 12:55:01;;;;;;;3.45;3.13;;;;;;;;;;5053966;28;20598;-88
2023/08/14 12:57:27;;;;;;;4.43;3.47;;;;;;;;;;5054020;28;20183;-88
2023/08/14 12:59:53;;;;;;;4.00;3.50;;;;;;;;;;5037217;28;20268;-87
2023/08/14 13:02:19;;;;;;;3.33;3.03;;;;;;;;;;5039825;28;20246;-87
2023/08/14 13:04:45;;;;;;;5.57;3.40;;;;;;;;;;5075518;28;20184;-88
2023/08/14 13:07:11;;;;;;;4.47;3.30;;;;;;;;;;5057856;28;20179;-88
2023/08/14 13:09:37;;;;;;;3.47;3.17;;;;;;;;;;5076123;28;20190;-86